Time;durP1;ratioP1;P1;durP2;ratioP2;P2;SDS_P1;SDS_P2;PMS_P1;PMS_P2;Temp;Humidity;BMP_temperature;BMP_pressure;BME280_temperature;BME280_humidity;BME280_pressure;Samples;Min_cycle;Max_cycle;Signal;HPM_P1;HPM_P2
2022/09/11 00:00:48;;;;;;;17.40;8.43;;;17.40;99.90;;;;;;5011570;28;20270;-63
2022/09/11 00:03:14;;;;;;;19.95;8.13;;;17.40;99.90;;;;;;5023571;28;20179;-63
2022/09/11 00:05:42;;;;;;;14.32;10.20;;;17.60;99.90;;;;;;5022850;28;20195;-63
2022/09/11 00:08:10;;;;;;;16.98;10.30;;;17.60;99.90;;;;;;5013726;28;20215;-63
2022/09/11 00:10:39;;;;;;;14.23;9.27;;;17.50;99.90;;;;;;5013055;28;20233;-63
2022/09/11 00:13:10;;;;;;;17.27;8.25;;;17.50;99.90;;;;;;5019509;28;20265;-63
2022/09/11 00:15:40;;;;;;;17.58;9.65;;;17.50;99.90;;;;;;5022352;28;20575;-64
2022/09/11 00:18:09;;;;;;;19.38;10.30;;;17.40;99.90;;;;;;5021533;28;20202;-63
2022/09/11 00:20:35;;;;;;;22.98;9.27;;;17.40;99.90;;;;;;5017511;28;20187;-64
2022/09/11 00:23:04;;;;;;;15.25;11.18;;;17.30;99.90;;;;;;5020074;28;20186;-63
2022/09/11 00:25:39;;;;;;;17.60;10.50;;;17.20;99.90;;;;;;5019857;28;20266;-63
2022/09/11 00:28:05;;;;;;;15.40;9.43;;;17.10;99.90;;;;;;5007704;28;20265;-63
2022/09/11 00:30:32;;;;;;;15.88;11.27;;;17.10;99.90;;;;;;5034696;28;20589;-63
2022/09/11 00:32:58;;;;;;;14.38;9.38;;;17.00;99.90;;;;;;5013142;28;20264;-63
2022/09/11 00:35:24;;;;;;;16.48;10.55;;;16.90;99.90;;;;;;5017361;28;20655;-63
2022/09/11 00:37:50;;;;;;;16.80;9.20;;;16.80;99.90;;;;;;5044233;28;20643;-63
2022/09/11 00:40:17;;;;;;;20.42;10.57;;;16.80;99.90;;;;;;5014822;28;20184;-63
2022/09/11 00:42:43;;;;;;;14.15;9.38;;;16.80;99.90;;;;;;5012492;28;20188;-63
2022/09/11 00:45:25;;;;;;;17.48;10.50;;;16.70;99.90;;;;;;5031131;28;20503;-63
2022/09/11 00:47:57;;;;;;;19.65;10.93;;;16.70;99.90;;;;;;5052042;28;20244;-63
2022/09/11 00:50:26;;;;;;;15.98;10.70;;;16.60;99.90;;;;;;5033601;28;20170;-63
2022/09/11 00:53:03;;;;;;;19.42;10.45;;;16.60;99.90;;;;;;5033609;28;20186;-64
2022/09/11 00:55:34;;;;;;;17.23;9.63;;;16.60;99.90;;;;;;5021709;28;20181;-63
2022/09/11 00:58:17;;;;;;;20.33;11.90;;;16.50;99.90;;;;;;5033253;28;20249;-64
2022/09/11 01:00:44;;;;;;;16.70;11.60;;;16.50;99.90;;;;;;5016502;28;20319;-63
2022/09/11 01:03:10;;;;;;;19.58;11.50;;;16.50;99.90;;;;;;5024410;28;20278;-63
2022/09/11 01:05:39;;;;;;;17.10;10.10;;;16.50;99.90;;;;;;5020321;28;20262;-63
2022/09/11 01:08:06;;;;;;;16.60;10.88;;;16.40;99.90;;;;;;5024721;28;20589;-63
2022/09/11 01:10:49;;;;;;;19.23;11.13;;;16.40;99.90;;;;;;5021138;28;20179;-63
2022/09/11 01:13:39;;;;;;;22.42;9.82;;;16.40;99.90;;;;;;5015643;28;20183;-63
2022/09/11 01:16:11;;;;;;;18.55;9.07;;;16.40;99.90;;;;;;5023378;28;20179;-64
2022/09/11 01:19:02;;;;;;;20.83;10.30;;;16.40;99.90;;;;;;5022979;28;20675;-63
2022/09/11 01:21:51;;;;;;;23.38;11.43;;;16.30;99.90;;;;;;5024003;28;20190;-64
2022/09/11 01:24:50;;;;;;;26.50;14.02;;;16.30;99.90;;;;;;5031508;28;20631;-63
2022/09/11 01:27:42;;;;;;;16.17;10.27;;;16.30;99.90;;;;;;5017851;28;20225;-63
2022/09/11 01:30:20;;;;;;;24.10;10.02;;;16.30;99.90;;;;;;5028662;28;20178;-63
2022/09/11 01:33:05;;;;;;;19.08;10.38;;;16.30;99.90;;;;;;5015513;28;20233;-63
2022/09/11 01:35:45;;;;;;;24.50;10.52;;;16.20;99.90;;;;;;5015831;28;20183;-63
2022/09/11 01:38:22;;;;;;;15.88;11.02;;;16.20;99.90;;;;;;5023071;28;20203;-63
2022/09/11 01:41:00;;;;;;;19.05;10.93;;;16.10;99.90;;;;;;5024903;28;20182;-64
2022/09/11 01:43:29;;;;;;;15.43;9.82;;;16.10;99.90;;;;;;5016228;28;20179;-64
2022/09/11 01:46:01;;;;;;;19.55;11.70;;;16.10;99.90;;;;;;5014844;28;20183;-63
2022/09/11 01:48:45;;;;;;;16.83;10.65;;;16.00;99.90;;;;;;5014711;28;20179;-63
2022/09/11 01:51:21;;;;;;;15.73;10.20;;;16.00;99.90;;;;;;5014049;28;20270;-63
2022/09/11 01:53:49;;;;;;;19.48;12.10;;;16.00;99.90;;;;;;5017836;28;20670;-63
2022/09/11 01:56:39;;;;;;;23.27;11.80;;;15.90;99.90;;;;;;5029213;28;20269;-64
2022/09/11 01:59:09;;;;;;;23.17;10.38;;;16.00;99.90;;;;;;5027972;28;20321;-64
2022/09/11 02:01:38;;;;;;;16.33;10.10;;;15.90;99.90;;;;;;5027295;28;20183;-64
2022/09/11 02:04:09;;;;;;;18.90;10.40;;;15.90;99.90;;;;;;5022502;28;20272;-64
2022/09/11 02:06:58;;;;;;;22.30;12.27;;;15.90;99.90;;;;;;5032550;28;20170;-63
2022/09/11 02:09:28;;;;;;;18.50;11.60;;;15.90;99.90;;;;;;5028219;28;20634;-64
2022/09/11 02:11:55;;;;;;;18.10;11.73;;;15.90;99.90;;;;;;5032814;28;20647;-63
2022/09/11 02:14:37;;;;;;;18.80;10.95;;;15.90;99.90;;;;;;5025214;28;20636;-64
2022/09/11 02:17:30;;;;;;;26.27;11.50;;;15.80;99.90;;;;;;5022525;28;20189;-63
2022/09/11 02:19:58;;;;;;;18.95;12.07;;;15.80;99.90;;;;;;5033454;28;20183;-64
2022/09/11 02:22:24;;;;;;;19.45;10.75;;;15.90;99.90;;;;;;5022780;28;20198;-63
2022/09/11 02:24:50;;;;;;;19.95;12.13;;;15.90;99.90;;;;;;5017910;28;20540;-63
2022/09/11 02:27:25;;;;;;;19.85;10.52;;;15.90;99.90;;;;;;5054224;28;20183;-64
2022/09/11 02:29:52;;;;;;;20.88;9.70;;;15.80;99.90;;;;;;5023033;28;20194;-64
2022/09/11 02:32:19;;;;;;;18.88;10.38;;;15.70;99.90;;;;;;5012371;28;20179;-64
2022/09/11 02:34:47;;;;;;;22.10;12.30;;;15.80;99.90;;;;;;5028518;28;20252;-64
2022/09/11 02:37:54;;;;;;;20.70;11.18;;;15.70;99.90;;;;;;5014867;28;20186;-64
2022/09/11 02:40:45;;;;;;;17.52;9.98;;;15.70;99.90;;;;;;5028003;28;20254;-64
2022/09/11 02:43:15;;;;;;;21.27;11.82;;;15.70;99.90;;;;;;5017615;28;20679;-65
2022/09/11 02:46:23;;;;;;;19.80;11.55;;;15.70;99.90;;;;;;5029814;28;20179;-64
2022/09/11 02:49:00;;;;;;;21.55;11.63;;;15.60;99.90;;;;;;5015734;28;20559;-64
2022/09/11 02:51:34;;;;;;;19.23;11.25;;;15.60;99.90;;;;;;5024654;28;20179;-64
2022/09/11 02:54:37;;;;;;;22.83;11.50;;;15.60;99.90;;;;;;5013947;28;20175;-64
2022/09/11 02:57:15;;;;;;;24.63;10.02;;;15.60;99.90;;;;;;5015851;28;20178;-64
2022/09/11 02:59:55;;;;;;;15.85;10.23;;;15.60;99.90;;;;;;5013662;28;20183;-64
2022/09/11 03:02:23;;;;;;;18.33;12.13;;;15.60;99.90;;;;;;5025138;28;20167;-64
2022/09/11 03:04:48;;;;;;;16.30;11.23;;;15.60;99.90;;;;;;5020163;28;20179;-64
2022/09/11 03:07:15;;;;;;;27.17;11.73;;;15.50;99.90;;;;;;5018446;28;20640;-64
2022/09/11 03:09:40;;;;;;;17.67;9.98;;;15.50;99.90;;;;;;5020575;28;20205;-63
2022/09/11 03:12:06;;;;;;;25.73;10.82;;;15.50;99.90;;;;;;5028374;28;20639;-64
2022/09/11 03:14:32;;;;;;;20.45;11.27;;;15.50;99.90;;;;;;5018709;28;20262;-63
2022/09/11 03:16:58;;;;;;;31.35;14.00;;;15.50;99.90;;;;;;5013896;28;20245;-64
2022/09/11 03:19:23;;;;;;;22.70;12.23;;;15.50;99.90;;;;;;5031039;28;20212;-63
2022/09/11 03:21:50;;;;;;;21.27;11.98;;;15.40;99.90;;;;;;5019175;28;20187;-63
2022/09/11 03:24:16;;;;;;;18.95;11.02;;;15.40;99.90;;;;;;5026248;28;20234;-64
2022/09/11 03:26:42;;;;;;;19.70;11.10;;;15.50;99.90;;;;;;5018171;28;20183;-64
2022/09/11 03:29:07;;;;;;;18.85;11.38;;;15.40;99.90;;;;;;5028437;28;20927;-64
2022/09/11 03:31:33;;;;;;;22.52;10.93;;;15.40;99.90;;;;;;5028379;28;20183;-64
2022/09/11 03:33:59;;;;;;;23.92;11.48;;;15.40;99.90;;;;;;5013715;28;20580;-64
2022/09/11 03:36:25;;;;;;;22.23;14.23;;;15.40;99.90;;;;;;5020333;28;20310;-64
2022/09/11 03:38:51;;;;;;;21.60;12.02;;;15.50;99.90;;;;;;5013376;28;20215;-64
2022/09/11 03:41:17;;;;;;;21.13;12.70;;;15.60;99.90;;;;;;5044410;28;20636;-64
2022/09/11 03:43:43;;;;;;;17.73;11.20;;;15.80;99.90;;;;;;5021134;28;20191;-64
2022/09/11 03:46:09;;;;;;;22.75;12.65;;;15.80;99.90;;;;;;5029497;28;20191;-63
2022/09/11 03:48:35;;;;;;;20.30;12.18;;;15.70;99.90;;;;;;5023276;28;20179;-64
2022/09/11 03:51:01;;;;;;;18.52;11.57;;;15.70;99.90;;;;;;5025032;28;20191;-64
2022/09/11 03:53:26;;;;;;;20.80;12.02;;;15.60;99.90;;;;;;5012614;28;20183;-63
2022/09/11 03:55:53;;;;;;;26.45;11.48;;;15.60;99.90;;;;;;5025278;28;20191;-63
2022/09/11 03:58:19;;;;;;;25.35;16.30;;;15.80;99.90;;;;;;5013132;28;20599;-63
2022/09/11 04:00:46;;;;;;;22.50;12.27;;;15.90;99.90;;;;;;5057343;28;20251;-63
2022/09/11 04:03:14;;;;;;;24.95;14.10;;;16.20;99.90;;;;;;5012714;28;20233;-64
2022/09/11 04:05:42;;;;;;;22.33;13.25;;;16.10;99.90;;;;;;5059214;28;20175;-64
2022/09/11 04:08:13;;;;;;;26.58;12.38;;;16.00;99.90;;;;;;5013360;28;20207;-64
2022/09/11 04:10:38;;;;;;;24.63;12.57;;;15.80;99.90;;;;;;5021043;28;20197;-64
2022/09/11 04:13:04;;;;;;;19.50;12.00;;;15.70;99.90;;;;;;5018682;28;20190;-64
2022/09/11 04:15:31;;;;;;;24.48;13.30;;;15.60;99.90;;;;;;5020733;28;20619;-64
2022/09/11 04:17:57;;;;;;;26.00;14.18;;;15.50;99.90;;;;;;5022657;28;20206;-63
2022/09/11 04:20:23;;;;;;;21.55;12.02;;;15.50;99.90;;;;;;5024282;28;20179;-64
2022/09/11 04:22:49;;;;;;;22.25;11.52;;;15.40;99.90;;;;;;5022397;28;21072;-63
2022/09/11 04:25:15;;;;;;;22.40;12.55;;;15.40;99.90;;;;;;5023475;28;20183;-63
2022/09/11 04:27:40;;;;;;;20.90;12.32;;;15.40;99.90;;;;;;5056283;28;20652;-63
2022/09/11 04:30:07;;;;;;;29.25;12.73;;;15.30;99.90;;;;;;5024597;28;21012;-63
2022/09/11 04:32:33;;;;;;;15.57;10.60;;;15.30;99.90;;;;;;5023924;28;20196;-63
2022/09/11 04:35:00;;;;;;;19.85;11.90;;;15.30;99.90;;;;;;5017364;28;20199;-63
2022/09/11 04:37:27;;;;;;;23.58;13.20;;;15.30;99.90;;;;;;5031782;28;20195;-63
2022/09/11 04:39:53;;;;;;;21.77;13.27;;;15.30;99.90;;;;;;5028072;28;20255;-64
2022/09/11 04:42:19;;;;;;;21.48;12.38;;;15.20;99.90;;;;;;5015085;28;20707;-63
2022/09/11 04:44:45;;;;;;;27.23;12.90;;;15.30;99.90;;;;;;5028140;28;20273;-63
2022/09/11 04:47:11;;;;;;;23.08;11.82;;;15.40;99.90;;;;;;5015370;28;20184;-63
2022/09/11 04:49:37;;;;;;;21.85;12.40;;;15.40;99.90;;;;;;5024764;28;20194;-63
2022/09/11 04:52:04;;;;;;;29.30;13.57;;;15.40;99.90;;;;;;5030303;28;20178;-62
2022/09/11 04:54:32;;;;;;;19.48;11.15;;;15.60;99.90;;;;;;5026615;28;20181;-63
2022/09/11 04:57:00;;;;;;;26.02;11.75;;;15.60;99.90;;;;;;5024548;28;20206;-63
2022/09/11 04:59:26;;;;;;;22.30;11.48;;;15.60;99.90;;;;;;5034151;28;20293;-63
2022/09/11 05:01:53;;;;;;;26.92;12.70;;;15.60;99.90;;;;;;5029515;28;20680;-63
2022/09/11 05:04:19;;;;;;;22.13;12.40;;;15.60;99.90;;;;;;5047668;28;20184;-63
2022/09/11 05:06:47;;;;;;;26.80;11.63;;;15.50;99.90;;;;;;5027096;28;20208;-63
2022/09/11 05:09:14;;;;;;;24.33;13.07;;;15.60;99.90;;;;;;5025454;28;20181;-63
2022/09/11 05:11:41;;;;;;;24.05;11.85;;;15.50;99.90;;;;;;5015803;28;20183;-63
2022/09/11 05:14:07;;;;;;;24.65;13.00;;;15.60;99.90;;;;;;5019189;28;20266;-63
2022/09/11 05:16:34;;;;;;;23.27;11.63;;;15.60;99.90;;;;;;5016438;28;20195;-63
2022/09/11 05:19:02;;;;;;;18.48;11.18;;;15.60;99.90;;;;;;5026380;28;20206;-63
2022/09/11 05:21:29;;;;;;;20.25;10.77;;;15.70;99.90;;;;;;5025257;28;20315;-63
2022/09/11 05:23:56;;;;;;;23.00;11.60;;;15.70;99.90;;;;;;5017705;28;20633;-63
2022/09/11 05:26:30;;;;;;;18.20;10.48;;;15.70;99.90;;;;;;5026757;28;20168;-63
2022/09/11 05:28:59;;;;;;;24.77;12.77;;;15.80;99.90;;;;;;5016771;28;20202;-63
2022/09/11 05:31:25;;;;;;;20.02;11.73;;;15.80;99.90;;;;;;5017008;28;20179;-63
2022/09/11 05:33:52;;;;;;;22.13;10.30;;;15.90;99.90;;;;;;5018940;28;20184;-63
2022/09/11 05:36:18;;;;;;;20.85;11.48;;;16.00;99.90;;;;;;5047842;28;20175;-63
2022/09/11 05:38:44;;;;;;;19.88;12.02;;;16.10;99.90;;;;;;5014917;28;20265;-63
2022/09/11 05:41:12;;;;;;;28.77;12.55;;;16.00;99.90;;;;;;5026036;28;20183;-63
2022/09/11 05:43:39;;;;;;;21.45;11.60;;;16.00;99.90;;;;;;5032544;28;20190;-63
2022/09/11 05:46:05;;;;;;;27.27;13.40;;;16.00;99.90;;;;;;5025927;28;20175;-63
2022/09/11 05:48:32;;;;;;;24.58;13.27;;;16.10;99.90;;;;;;5027823;28;20199;-64
2022/09/11 05:51:05;;;;;;;22.80;13.43;;;16.10;99.90;;;;;;5058544;28;20632;-64
2022/09/11 05:53:32;;;;;;;21.15;12.27;;;16.20;99.90;;;;;;5022825;28;20655;-64
2022/09/11 05:56:04;;;;;;;18.10;11.48;;;16.20;99.90;;;;;;5024203;28;20193;-64
2022/09/11 05:58:31;;;;;;;21.45;11.73;;;16.20;99.90;;;;;;5024316;28;20256;-64
2022/09/11 06:01:14;;;;;;;23.92;11.98;;;16.30;99.90;;;;;;5025559;28;20190;-65
2022/09/11 06:03:40;;;;;;;21.38;11.35;;;16.30;99.90;;;;;;5027074;28;20274;-68
2022/09/11 06:06:08;;;;;;;20.48;10.55;;;16.30;99.90;;;;;;5023989;28;20266;-68
2022/09/11 06:08:35;;;;;;;18.98;11.57;;;16.40;99.90;;;;;;5015552;28;20730;-73
2022/09/11 06:11:06;;;;;;;19.65;11.43;;;16.50;99.90;;;;;;5027109;28;20217;-66
2022/09/11 06:13:34;;;;;;;18.40;11.02;;;16.50;99.90;;;;;;5027469;28;20183;-66
2022/09/11 06:16:01;;;;;;;17.50;10.57;;;16.60;99.90;;;;;;5027174;28;20187;-67
2022/09/11 06:18:28;;;;;;;17.45;10.52;;;16.60;99.90;;;;;;5027084;28;20718;-68
2022/09/11 06:20:57;;;;;;;23.92;12.77;;;16.80;99.90;;;;;;5032042;28;20301;-65
2022/09/11 06:23:24;;;;;;;22.25;11.15;;;16.90;99.90;;;;;;5024292;28;20219;-65
2022/09/11 06:25:53;;;;;;;17.80;11.35;;;16.90;99.90;;;;;;5019910;28;20686;-66
2022/09/11 06:28:21;;;;;;;22.63;12.43;;;17.00;99.90;;;;;;5024958;28;20202;-67
2022/09/11 06:30:50;;;;;;;21.05;11.57;;;16.90;99.90;;;;;;5025036;28;20187;-67
2022/09/11 06:33:19;;;;;;;21.65;10.20;;;17.00;99.90;;;;;;5025817;28;20175;-67
2022/09/11 06:35:56;;;;;;;18.30;12.15;;;17.20;99.90;;;;;;5014925;28;20194;-66
2022/09/11 06:38:22;;;;;;;18.98;11.93;;;17.20;99.90;;;;;;5026655;28;20196;-66
2022/09/11 06:40:47;;;;;;;21.95;12.15;;;17.40;99.90;;;;;;5013441;28;20188;-67
2022/09/11 06:43:13;;;;;;;22.27;12.20;;;17.40;99.90;;;;;;5026626;28;20248;-67
2022/09/11 06:45:40;;;;;;;24.52;13.23;;;17.50;99.90;;;;;;5013793;28;20270;-67
2022/09/11 06:48:06;;;;;;;25.80;14.52;;;17.70;99.90;;;;;;5026569;28;20186;-67
2022/09/11 06:50:39;;;;;;;25.10;13.60;;;17.80;99.90;;;;;;5014437;28;20186;-66
2022/09/11 06:53:06;;;;;;;26.50;14.23;;;18.00;99.90;;;;;;5014071;28;20191;-67
2022/09/11 06:55:32;;;;;;;25.77;15.00;;;18.30;99.90;;;;;;5012853;28;20187;-66
2022/09/11 06:57:58;;;;;;;23.73;12.98;;;18.30;99.90;;;;;;5022262;28;20691;-67
2022/09/11 07:00:24;;;;;;;22.88;12.55;;;18.20;99.90;;;;;;5019585;28;20190;-66
2022/09/11 07:02:51;;;;;;;26.73;15.55;;;18.10;99.90;;;;;;5029190;28;20179;-66
2022/09/11 07:05:18;;;;;;;24.02;13.35;;;18.10;99.90;;;;;;5018531;28;20194;-66
2022/09/11 07:07:45;;;;;;;24.65;13.25;;;18.10;99.90;;;;;;5013828;28;20213;-66
2022/09/11 07:10:10;;;;;;;25.17;13.45;;;18.00;99.90;;;;;;5024332;28;20265;-67
2022/09/11 07:12:37;;;;;;;27.65;16.77;;;18.00;99.90;;;;;;5016497;28;20282;-66
2022/09/11 07:15:05;;;;;;;27.02;14.80;;;18.10;99.90;;;;;;5031413;28;20257;-66
2022/09/11 07:17:31;;;;;;;26.83;14.65;;;18.40;99.90;;;;;;5024693;28;20184;-66
2022/09/11 07:19:57;;;;;;;27.13;15.25;;;18.60;99.90;;;;;;5054553;28;20254;-67
2022/09/11 07:22:23;;;;;;;23.95;14.02;;;18.60;99.90;;;;;;5027022;28;20644;-67
2022/09/11 07:24:48;;;;;;;25.70;14.93;;;18.80;99.90;;;;;;5038174;28;20191;-67
2022/09/11 07:27:14;;;;;;;23.35;14.07;;;18.80;99.90;;;;;;5019491;28;20187;-67
2022/09/11 07:29:39;;;;;;;24.27;14.30;;;18.80;99.90;;;;;;5014041;28;20267;-67
2022/09/11 07:32:05;;;;;;;27.25;14.52;;;19.00;99.90;;;;;;5017938;28;20206;-67
2022/09/11 07:34:31;;;;;;;30.05;14.68;;;19.00;99.90;;;;;;5020040;28;20219;-67
2022/09/11 07:36:57;;;;;;;27.20;16.42;;;19.00;99.90;;;;;;5013234;28;20285;-70
2022/09/11 07:39:22;;;;;;;27.95;15.48;;;19.00;99.90;;;;;;5012894;28;20207;-67
2022/09/11 07:41:48;;;;;;;29.60;15.45;;;19.10;99.90;;;;;;5019270;28;20317;-67
2022/09/11 07:44:15;;;;;;;23.58;13.80;;;19.30;99.90;;;;;;5011877;28;20237;-66
2022/09/11 07:46:40;;;;;;;25.75;16.02;;;19.30;99.90;;;;;;5027182;28;20669;-67
2022/09/11 07:49:08;;;;;;;26.35;14.52;;;19.40;99.90;;;;;;5014786;28;20195;-67
2022/09/11 07:51:35;;;;;;;23.95;14.73;;;19.50;99.90;;;;;;5022383;28;20659;-66
2022/09/11 07:54:01;;;;;;;23.40;13.90;;;19.60;99.90;;;;;;5018061;28;20178;-67
2022/09/11 07:56:27;;;;;;;26.20;14.25;;;19.70;99.90;;;;;;5055707;28;20178;-66
2022/09/11 07:58:54;;;;;;;29.10;13.60;;;19.90;99.90;;;;;;5028822;28;21244;-66
2022/09/11 08:01:25;;;;;;;27.52;13.38;;;20.00;99.90;;;;;;5012018;28;20175;-66
2022/09/11 08:03:59;;;;;;;24.02;13.45;;;20.10;99.90;;;;;;5014332;28;20171;-67
2022/09/11 08:06:28;;;;;;;28.50;15.30;;;20.00;99.90;;;;;;5022168;28;20197;-67
2022/09/11 08:08:55;;;;;;;23.40;13.95;;;20.30;99.90;;;;;;5029250;28;20248;-67
2022/09/11 08:11:22;;;;;;;26.52;14.80;;;20.30;99.90;;;;;;5012468;28;20179;-63
2022/09/11 08:13:52;;;;;;;26.38;15.63;;;20.50;99.90;;;;;;5019711;28;20182;-62
2022/09/11 08:16:19;;;;;;;26.27;15.15;;;20.60;99.90;;;;;;5025131;28;20270;-62
2022/09/11 08:18:46;;;;;;;21.83;14.48;;;20.80;99.90;;;;;;5022933;28;20253;-62
2022/09/11 08:21:13;;;;;;;24.90;14.52;;;20.90;99.90;;;;;;5021545;28;20270;-62
2022/09/11 08:23:41;;;;;;;30.00;14.55;;;21.00;99.90;;;;;;5018553;28;20245;-63
2022/09/11 08:26:15;;;;;;;27.90;16.50;;;21.20;99.90;;;;;;5016628;28;20179;-62
2022/09/11 08:28:41;;;;;;;27.45;16.98;;;20.90;99.90;;;;;;5017126;28;20656;-61
2022/09/11 08:31:08;;;;;;;28.83;16.55;;;21.00;99.90;;;;;;5036112;28;20185;-62
2022/09/11 08:33:33;;;;;;;28.13;17.13;;;21.40;99.90;;;;;;5016992;28;20683;-62
2022/09/11 08:36:01;;;;;;;29.58;17.73;;;21.70;99.90;;;;;;5016309;28;20179;-61
2022/09/11 08:38:28;;;;;;;26.88;16.83;;;22.10;99.90;;;;;;5021077;28;20239;-61
2022/09/11 08:40:56;;;;;;;33.83;19.75;;;22.40;99.90;;;;;;5017699;28;20186;-62
2022/09/11 08:43:26;;;;;;;33.42;19.77;;;22.50;99.90;;;;;;5015265;28;20214;-66
2022/09/11 08:45:57;;;;;;;35.65;20.42;;;22.80;99.90;;;;;;5017628;28;20187;-63
2022/09/11 08:48:42;;;;;;;35.75;20.30;;;22.80;99.90;;;;;;5015606;28;20257;-61
2022/09/11 08:51:13;;;;;;;39.65;21.02;;;22.50;99.90;;;;;;5020162;28;20543;-62
2022/09/11 08:53:39;;;;;;;34.40;20.23;;;22.30;99.90;;;;;;5014230;28;20187;-61
2022/09/11 08:56:13;;;;;;;41.10;20.75;;;22.30;99.90;;;;;;5044406;28;20266;-62
2022/09/11 08:59:03;;;;;;;28.23;16.67;;;22.50;99.90;;;;;;5013542;28;20210;-62
2022/09/11 09:01:47;;;;;;;35.10;19.60;;;22.60;99.90;;;;;;5011119;28;20179;-61
2022/09/11 09:04:49;;;;;;;30.35;17.42;;;23.10;99.90;;;;;;5062201;28;20198;-61
2022/09/11 09:07:40;;;;;;;31.90;17.30;;;23.50;99.90;;;;;;5030102;28;20669;-61
2022/09/11 09:10:32;;;;;;;27.27;17.42;;;23.80;99.90;;;;;;5018202;28;20172;-61
2022/09/11 09:13:03;;;;;;;35.67;19.13;;;23.70;99.90;;;;;;5016795;28;20180;-61
2022/09/11 09:15:47;;;;;;;32.63;18.10;;;23.60;99.90;;;;;;5016549;28;20194;-61
2022/09/11 09:18:47;;;;;;;28.05;16.65;;;23.40;99.90;;;;;;5019870;28;20207;-61
2022/09/11 09:21:30;;;;;;;28.98;18.08;;;23.50;99.90;;;;;;5027770;28;20719;-61
2022/09/11 09:23:59;;;;;;;35.55;19.50;;;23.50;99.90;;;;;;5049337;28;20202;-61
2022/09/11 09:26:34;;;;;;;29.38;16.67;;;23.50;99.90;;;;;;5021838;28;20226;-61
2022/09/11 09:29:03;;;;;;;33.50;19.10;;;23.40;99.90;;;;;;5023689;28;20187;-62
2022/09/11 09:31:30;;;;;;;35.10;18.63;;;22.80;99.90;;;;;;5021996;28;20209;-61
2022/09/11 09:34:01;;;;;;;31.13;16.80;;;22.70;99.90;;;;;;5027237;28;20195;-61
2022/09/11 09:36:36;;;;;;;24.38;15.98;;;22.20;99.90;;;;;;5047322;28;20167;-61
2022/09/11 09:39:09;;;;;;;30.95;16.35;;;22.00;99.90;;;;;;5034803;28;20574;-61
2022/09/11 09:42:13;;;;;;;28.20;17.05;;;21.90;99.90;;;;;;5016103;28;20247;-61
2022/09/11 09:44:41;;;;;;;24.92;15.90;;;21.80;99.90;;;;;;5026783;28;20195;-62
2022/09/11 09:47:12;;;;;;;28.48;16.17;;;21.80;99.90;;;;;;5047314;28;20175;-62
2022/09/11 09:49:38;;;;;;;29.95;19.02;;;21.80;99.90;;;;;;5017223;28;20648;-61
2022/09/11 09:52:25;;;;;;;30.13;16.77;;;21.80;99.90;;;;;;5021507;28;20183;-64
2022/09/11 09:55:01;;;;;;;27.50;16.08;;;21.70;99.90;;;;;;5017627;28;20330;-62
2022/09/11 09:57:35;;;;;;;27.48;15.23;;;21.30;99.90;;;;;;5015149;28;20521;-62
2022/09/11 10:00:09;;;;;;;24.27;14.77;;;21.10;99.90;;;;;;5015231;28;20179;-63
2022/09/11 10:02:52;;;;;;;24.10;15.07;;;21.20;99.90;;;;;;5021030;28;20621;-62
2022/09/11 10:05:29;;;;;;;27.17;13.95;;;21.40;99.90;;;;;;5025468;28;20178;-66
2022/09/11 10:08:06;;;;;;;22.45;15.02;;;21.60;99.90;;;;;;5015116;28;20656;-61
2022/09/11 10:10:38;;;;;;;22.30;13.18;;;21.90;99.90;;;;;;5026446;28;20197;-61
2022/09/11 10:13:19;;;;;;;22.80;14.70;;;21.90;99.90;;;;;;5019702;28;20214;-62
2022/09/11 10:15:47;;;;;;;19.15;12.45;;;22.00;99.90;;;;;;5019060;28;20214;-62
2022/09/11 10:18:34;;;;;;;19.15;13.52;;;22.00;99.90;;;;;;5024376;28;20225;-61
2022/09/11 10:21:12;;;;;;;17.60;11.63;;;22.40;99.90;;;;;;5021331;28;20188;-64
2022/09/11 10:24:21;;;;;;;17.77;12.07;;;22.50;99.90;;;;;;5013898;28;20182;-66
2022/09/11 10:26:50;;;;;;;20.33;12.02;;;22.50;99.90;;;;;;5014577;28;20261;-64
2022/09/11 10:29:25;;;;;;;24.80;12.05;;;22.60;99.90;;;;;;5028154;28;20270;-64
2022/09/11 10:31:53;;;;;;;39.20;12.32;;;22.60;99.90;;;;;;5021377;28;20284;-66
2022/09/11 10:34:25;;;;;;;18.98;12.20;;;22.70;99.90;;;;;;5016463;28;20225;-65
2022/09/11 10:36:59;;;;;;;25.15;12.35;;;23.10;99.90;;;;;;5017297;28;20219;-65
2022/09/11 10:39:28;;;;;;;15.38;9.73;;;23.00;99.90;;;;;;5027158;28;20232;-65
2022/09/11 10:41:58;;;;;;;14.13;11.00;;;22.80;99.90;;;;;;5019554;28;20179;-66
2022/09/11 10:44:25;;;;;;;20.88;12.57;;;22.50;99.90;;;;;;5015132;28;20262;-65
2022/09/11 10:47:03;;;;;;;23.30;13.48;;;22.60;99.90;;;;;;5012735;28;20187;-64
2022/09/11 10:49:28;;;;;;;17.00;11.85;;;22.60;99.90;;;;;;5016629;28;20207;-65
2022/09/11 10:52:04;;;;;;;15.07;9.82;;;22.90;99.90;;;;;;5029564;28;20206;-64
2022/09/11 10:54:43;;;;;;;20.45;11.43;;;22.60;99.90;;;;;;5019017;28;20591;-65
2022/09/11 10:57:32;;;;;;;16.95;11.95;;;22.60;99.90;;;;;;5031786;28;20236;-65
2022/09/11 11:00:06;;;;;;;14.40;10.20;;;22.70;99.90;;;;;;5033571;28;20199;-64
2022/09/11 11:02:34;;;;;;;15.75;10.02;;;22.90;99.90;;;;;;5024425;28;20575;-65
2022/09/11 11:05:31;;;;;;;23.00;11.80;;;22.80;99.90;;;;;;5033061;28;20190;-65
2022/09/11 11:08:21;;;;;;;15.20;9.55;;;22.90;99.90;;;;;;5029389;28;20194;-65
2022/09/11 11:11:02;;;;;;;16.73;10.07;;;22.80;99.90;;;;;;5023956;28;20632;-64
2022/09/11 11:13:41;;;;;;;19.00;10.93;;;22.50;99.90;;;;;;5021552;28;20175;-65
2022/09/11 11:16:26;;;;;;;15.95;10.07;;;22.30;99.90;;;;;;5021250;28;20261;-65
2022/09/11 11:19:16;;;;;;;15.85;9.82;;;22.20;99.90;;;;;;5021323;28;20202;-65
2022/09/11 11:21:53;;;;;;;13.48;8.93;;;22.00;99.90;;;;;;5022346;28;20261;-64
2022/09/11 11:24:41;;;;;;;13.48;9.05;;;21.60;99.90;;;;;;5023236;28;20557;-67
2022/09/11 11:27:26;;;;;;;15.15;9.57;;;21.60;99.90;;;;;;5027850;28;20177;-65
2022/09/11 11:30:16;;;;;;;13.38;8.60;;;21.90;99.90;;;;;;5029023;28;20232;-65
2022/09/11 11:32:50;;;;;;;12.40;9.20;;;21.90;99.90;;;;;;5018541;28;20195;-63
2022/09/11 11:35:26;;;;;;;16.83;10.30;;;21.90;99.90;;;;;;5026478;28;20189;-65
2022/09/11 11:38:19;;;;;;;16.52;9.60;;;21.80;99.90;;;;;;5023279;28;20229;-67
2022/09/11 11:40:52;;;;;;;23.10;11.32;;;21.80;99.90;;;;;;5018036;28;20258;-66
2022/09/11 11:43:22;;;;;;;13.43;9.00;;;22.00;99.90;;;;;;5031302;28;20229;-66
2022/09/11 11:45:52;;;;;;;14.95;9.23;;;22.20;99.90;;;;;;5022779;28;20613;-65
2022/09/11 11:48:25;;;;;;;10.20;7.82;;;22.30;99.90;;;;;;5016220;28;20675;-64
2022/09/11 11:51:01;;;;;;;12.40;7.97;;;22.50;99.90;;;;;;5016422;28;20171;-66
2022/09/11 11:53:35;;;;;;;8.60;6.85;;;22.60;99.90;;;;;;5022307;28;20538;-67
2022/09/11 11:56:30;;;;;;;10.27;5.93;;;22.70;99.90;;;;;;5015855;28;20639;-66
2022/09/11 11:59:21;;;;;;;7.30;6.15;;;22.90;99.90;;;;;;5024630;28;20210;-64
2022/09/11 12:02:08;;;;;;;10.75;6.45;;;23.30;99.90;;;;;;5030531;28;20185;-64
2022/09/11 12:04:55;;;;;;;9.98;6.38;;;23.00;99.90;;;;;;5020642;28;20182;-63
2022/09/11 12:07:29;;;;;;;9.43;6.88;;;22.70;99.90;;;;;;5015651;28;20199;-64
2022/09/11 12:09:57;;;;;;;7.82;6.03;;;22.20;99.90;;;;;;5013651;28;20178;-64
2022/09/11 12:12:31;;;;;;;9.13;6.65;;;22.00;99.90;;;;;;5025511;28;20261;-65
2022/09/11 12:15:08;;;;;;;6.85;5.65;;;22.00;99.90;;;;;;5014978;28;20179;-65
2022/09/11 12:17:36;;;;;;;6.47;5.75;;;22.00;99.90;;;;;;5013384;28;20235;-64
2022/09/11 12:20:10;;;;;;;8.80;4.97;;;21.90;99.90;;;;;;5012844;28;20179;-65
2022/09/11 12:22:47;;;;;;;5.90;4.75;;;21.80;99.90;;;;;;5044994;28;20182;-64
2022/09/11 12:25:21;;;;;;;5.55;4.43;;;21.80;99.90;;;;;;5023902;28;20213;-66
2022/09/11 12:27:54;;;;;;;6.10;5.50;;;22.20;99.90;;;;;;5029948;28;20185;-65
2022/09/11 12:30:23;;;;;;;5.00;4.43;;;22.50;99.90;;;;;;5024700;28;20183;-65
2022/09/11 12:32:54;;;;;;;5.05;4.57;;;22.70;99.90;;;;;;5024126;28;20175;-63
2022/09/11 12:35:38;;;;;;;9.10;4.35;;;22.60;99.90;;;;;;5019656;28;20187;-64
2022/09/11 12:38:07;;;;;;;4.35;3.72;;;22.40;99.90;;;;;;5024429;28;20214;-64
2022/09/11 12:40:56;;;;;;;4.85;4.35;;;22.50;99.90;;;;;;5028760;28;20174;-64
2022/09/11 12:43:33;;;;;;;13.18;4.18;;;22.20;99.90;;;;;;5027553;28;20629;-64
2022/09/11 12:46:00;;;;;;;3.42;3.13;;;22.10;99.90;;;;;;5024282;28;20184;-63
2022/09/11 12:48:45;;;;;;;3.95;3.55;;;21.80;99.90;;;;;;5022991;28;20543;-63
2022/09/11 12:51:28;;;;;;;4.18;3.85;;;21.80;99.90;;;;;;5023604;28;20176;-64
2022/09/11 12:54:00;;;;;;;6.78;3.70;;;22.00;99.90;;;;;;5026352;28;20270;-63
2022/09/11 12:56:30;;;;;;;3.75;3.45;;;22.00;99.90;;;;;;5028728;28;20182;-64